sensor_id;sensor_type;location;lat;lon;timestamp;P1;durP1;ratioP1;P2;durP2;ratioP2
1360;SDS011;674;45.552;-122.600;2023-04-16T00:02:04;4.80;;;3.23;;
1360;SDS011;674;45.552;-122.600;2023-04-16T00:04:32;3.60;;;2.70;;
1360;SDS011;674;45.552;-122.600;2023-04-16T00:07:01;4.30;;;3.23;;
1360;SDS011;674;45.552;-122.600;2023-04-16T00:09:30;7.47;;;5.90;;
1360;SDS011;674;45.552;-122.600;2023-04-16T00:11:58;4.17;;;3.00;;
1360;SDS011;674;45.552;-122.600;2023-04-16T00:14:27;5.20;;;3.17;;
1360;SDS011;674;45.552;-122.600;2023-04-16T00:16:55;6.60;;;4.03;;
1360;SDS011;674;45.552;-122.600;2023-04-16T00:19:24;6.03;;;3.43;;
1360;SDS011;674;45.552;-122.600;2023-04-16T00:21:53;5.40;;;2.73;;
1360;SDS011;674;45.552;-122.600;2023-04-16T00:24:21;4.60;;;2.40;;
1360;SDS011;674;45.552;-122.600;2023-04-16T00:26:50;5.32;;;2.63;;
1360;SDS011;674;45.552;-122.600;2023-04-16T00:29:18;4.13;;;2.28;;
1360;SDS011;674;45.552;-122.600;2023-04-16T00:31:47;2.80;;;2.07;;
1360;SDS011;674;45.552;-122.600;2023-04-16T00:34:15;4.53;;;3.07;;
1360;SDS011;674;45.552;-122.600;2023-04-16T00:36:44;6.30;;;2.80;;
1360;SDS011;674;45.552;-122.600;2023-04-16T00:39:12;2.30;;;2.10;;
1360;SDS011;674;45.552;-122.600;2023-04-16T00:41:41;3.13;;;1.80;;
1360;SDS011;674;45.552;-122.600;2023-04-16T00:44:10;6.50;;;2.43;;
1360;SDS011;674;45.552;-122.600;2023-04-16T00:46:39;4.93;;;2.43;;
1360;SDS011;674;45.552;-122.600;2023-04-16T00:49:08;5.17;;;2.70;;
1360;SDS011;674;45.552;-122.600;2023-04-16T00:51:37;3.90;;;2.60;;
1360;SDS011;674;45.552;-122.600;2023-04-16T00:54:05;3.17;;;2.40;;
1360;SDS011;674;45.552;-122.600;2023-04-16T00:56:34;4.37;;;2.70;;
1360;SDS011;674;45.552;-122.600;2023-04-16T00:59:03;3.70;;;2.70;;
1360;SDS011;674;45.552;-122.600;2023-04-16T01:01:32;3.90;;;2.60;;
1360;SDS011;674;45.552;-122.600;2023-04-16T01:04:00;2.93;;;2.47;;
1360;SDS011;674;45.552;-122.600;2023-04-16T01:06:29;2.95;;;2.40;;
1360;SDS011;674;45.552;-122.600;2023-04-16T01:08:58;3.67;;;2.73;;
1360;SDS011;674;45.552;-122.600;2023-04-16T01:11:26;4.30;;;2.75;;
1360;SDS011;674;45.552;-122.600;2023-04-16T01:13:56;6.00;;;2.93;;
1360;SDS011;674;45.552;-122.600;2023-04-16T01:16:24;3.45;;;2.60;;
1360;SDS011;674;45.552;-122.600;2023-04-16T01:18:53;4.00;;;2.77;;
1360;SDS011;674;45.552;-122.600;2023-04-16T01:21:21;3.93;;;2.40;;
1360;SDS011;674;45.552;-122.600;2023-04-16T01:23:50;3.00;;;2.43;;
1360;SDS011;674;45.552;-122.600;2023-04-16T01:26:18;3.77;;;2.70;;
1360;SDS011;674;45.552;-122.600;2023-04-16T01:28:47;4.93;;;2.50;;
1360;SDS011;674;45.552;-122.600;2023-04-16T01:31:15;4.73;;;2.70;;
1360;SDS011;674;45.552;-122.600;2023-04-16T01:33:44;4.07;;;2.70;;
1360;SDS011;674;45.552;-122.600;2023-04-16T01:36:12;4.63;;;2.77;;
1360;SDS011;674;45.552;-122.600;2023-04-16T01:38:41;4.30;;;3.07;;
1360;SDS011;674;45.552;-122.600;2023-04-16T01:41:10;3.80;;;2.60;;
1360;SDS011;674;45.552;-122.600;2023-04-16T01:43:38;3.33;;;2.33;;
1360;SDS011;674;45.552;-122.600;2023-04-16T01:46:19;3.90;;;2.30;;
1360;SDS011;674;45.552;-122.600;2023-04-16T01:48:53;5.60;;;2.50;;
1360;SDS011;674;45.552;-122.600;2023-04-16T01:51:22;5.03;;;2.43;;
1360;SDS011;674;45.552;-122.600;2023-04-16T01:53:51;4.00;;;2.10;;
1360;SDS011;674;45.552;-122.600;2023-04-16T01:56:19;6.43;;;2.70;;
1360;SDS011;674;45.552;-122.600;2023-04-16T01:58:48;4.97;;;2.50;;
1360;SDS011;674;45.552;-122.600;2023-04-16T02:01:16;4.70;;;2.67;;
1360;SDS011;674;45.552;-122.600;2023-04-16T02:03:45;3.30;;;2.70;;
1360;SDS011;674;45.552;-122.600;2023-04-16T02:06:15;4.50;;;2.60;;
1360;SDS011;674;45.552;-122.600;2023-04-16T02:08:43;4.38;;;2.40;;
1360;SDS011;674;45.552;-122.600;2023-04-16T02:11:12;5.75;;;2.85;;
1360;SDS011;674;45.552;-122.600;2023-04-16T02:13:42;4.90;;;2.70;;
1360;SDS011;674;45.552;-122.600;2023-04-16T02:16:11;3.57;;;2.50;;
1360;SDS011;674;45.552;-122.600;2023-04-16T02:18:39;6.93;;;2.93;;
1360;SDS011;674;45.552;-122.600;2023-04-16T02:21:08;3.90;;;2.43;;
1360;SDS011;674;45.552;-122.600;2023-04-16T02:23:36;4.73;;;3.00;;
1360;SDS011;674;45.552;-122.600;2023-04-16T02:26:07;5.43;;;2.50;;
1360;SDS011;674;45.552;-122.600;2023-04-16T02:28:35;3.80;;;2.40;;
1360;SDS011;674;45.552;-122.600;2023-04-16T02:31:04;3.67;;;2.88;;
1360;SDS011;674;45.552;-122.600;2023-04-16T02:33:32;4.03;;;2.80;;
1360;SDS011;674;45.552;-122.600;2023-04-16T02:36:02;6.70;;;2.93;;
1360;SDS011;674;45.552;-122.600;2023-04-16T02:38:30;5.60;;;2.70;;
1360;SDS011;674;45.552;-122.600;2023-04-16T02:40:59;4.80;;;2.60;;
1360;SDS011;674;45.552;-122.600;2023-04-16T02:43:27;4.70;;;2.87;;
1360;SDS011;674;45.552;-122.600;2023-04-16T02:45:56;5.30;;;3.17;;
1360;SDS011;674;45.552;-122.600;2023-04-16T02:48:25;3.60;;;2.80;;
1360;SDS011;674;45.552;-122.600;2023-04-16T02:50:54;5.93;;;3.07;;
1360;SDS011;674;45.552;-122.600;2023-04-16T02:53:22;4.73;;;3.40;;
1360;SDS011;674;45.552;-122.600;2023-04-16T02:55:51;4.93;;;3.33;;
1360;SDS011;674;45.552;-122.600;2023-04-16T02:58:21;5.53;;;3.60;;
1360;SDS011;674;45.552;-122.600;2023-04-16T03:00:51;4.33;;;3.70;;
1360;SDS011;674;45.552;-122.600;2023-04-16T03:03:20;4.47;;;3.97;;
1360;SDS011;674;45.552;-122.600;2023-04-16T03:05:49;5.97;;;4.77;;
1360;SDS011;674;45.552;-122.600;2023-04-16T03:08:17;5.63;;;4.30;;
1360;SDS011;674;45.552;-122.600;2023-04-16T03:10:46;7.10;;;4.40;;
1360;SDS011;674;45.552;-122.600;2023-04-16T03:13:14;9.30;;;4.90;;
1360;SDS011;674;45.552;-122.600;2023-04-16T03:15:46;5.33;;;4.60;;
1360;SDS011;674;45.552;-122.600;2023-04-16T03:18:18;8.93;;;4.77;;
1360;SDS011;674;45.552;-122.600;2023-04-16T03:20:50;5.90;;;4.10;;
1360;SDS011;674;45.552;-122.600;2023-04-16T03:23:19;4.73;;;3.40;;
1360;SDS011;674;45.552;-122.600;2023-04-16T03:25:48;5.53;;;4.17;;
1360;SDS011;674;45.552;-122.600;2023-04-16T03:28:16;6.33;;;3.80;;
1360;SDS011;674;45.552;-122.600;2023-04-16T03:30:51;6.23;;;3.33;;
1360;SDS011;674;45.552;-122.600;2023-04-16T03:33:20;4.10;;;3.00;;
1360;SDS011;674;45.552;-122.600;2023-04-16T03:35:55;4.40;;;3.20;;
1360;SDS011;674;45.552;-122.600;2023-04-16T03:38:24;4.50;;;2.90;;
1360;SDS011;674;45.552;-122.600;2023-04-16T03:40:53;5.90;;;4.00;;
1360;SDS011;674;45.552;-122.600;2023-04-16T03:43:21;8.07;;;4.80;;
1360;SDS011;674;45.552;-122.600;2023-04-16T03:45:50;13.77;;;8.27;;
1360;SDS011;674;45.552;-122.600;2023-04-16T03:48:18;11.47;;;6.30;;
1360;SDS011;674;45.552;-122.600;2023-04-16T03:50:47;10.60;;;6.97;;
1360;SDS011;674;45.552;-122.600;2023-04-16T03:53:15;7.13;;;5.10;;
1360;SDS011;674;45.552;-122.600;2023-04-16T03:55:44;10.47;;;6.40;;
1360;SDS011;674;45.552;-122.600;2023-04-16T03:58:20;6.07;;;4.63;;
1360;SDS011;674;45.552;-122.600;2023-04-16T04:00:48;5.47;;;4.50;;
1360;SDS011;674;45.552;-122.600;2023-04-16T04:03:19;7.00;;;4.83;;
1360;SDS011;674;45.552;-122.600;2023-04-16T04:05:48;11.10;;;6.67;;
1360;SDS011;674;45.552;-122.600;2023-04-16T04:08:16;8.60;;;6.40;;
1360;SDS011;674;45.552;-122.600;2023-04-16T04:10:45;6.33;;;4.70;;
1360;SDS011;674;45.552;-122.600;2023-04-16T04:13:14;8.20;;;5.23;;
1360;SDS011;674;45.552;-122.600;2023-04-16T04:15:42;7.15;;;5.28;;
1360;SDS011;674;45.552;-122.600;2023-04-16T04:18:11;8.70;;;5.70;;
1360;SDS011;674;45.552;-122.600;2023-04-16T04:20:40;10.43;;;7.53;;
1360;SDS011;674;45.552;-122.600;2023-04-16T04:23:08;8.37;;;6.17;;
1360;SDS011;674;45.552;-122.600;2023-04-16T04:25:37;10.40;;;7.10;;
1360;SDS011;674;45.552;-122.600;2023-04-16T04:28:06;8.30;;;5.38;;
1360;SDS011;674;45.552;-122.600;2023-04-16T04:30:34;9.37;;;5.90;;
1360;SDS011;674;45.552;-122.600;2023-04-16T04:33:03;9.67;;;7.17;;
1360;SDS011;674;45.552;-122.600;2023-04-16T04:35:32;8.00;;;6.57;;
1360;SDS011;674;45.552;-122.600;2023-04-16T04:38:01;9.07;;;7.40;;
1360;SDS011;674;45.552;-122.600;2023-04-16T04:40:30;9.23;;;6.70;;
1360;SDS011;674;45.552;-122.600;2023-04-16T04:42:58;12.10;;;8.40;;
1360;SDS011;674;45.552;-122.600;2023-04-16T04:45:27;7.73;;;6.13;;
1360;SDS011;674;45.552;-122.600;2023-04-16T04:47:57;7.47;;;5.57;;
1360;SDS011;674;45.552;-122.600;2023-04-16T04:50:26;14.73;;;6.60;;
1360;SDS011;674;45.552;-122.600;2023-04-16T04:52:54;11.10;;;6.83;;
1360;SDS011;674;45.552;-122.600;2023-04-16T04:55:23;12.47;;;6.80;;
1360;SDS011;674;45.552;-122.600;2023-04-16T04:57:52;10.27;;;7.30;;
1360;SDS011;674;45.552;-122.600;2023-04-16T05:00:21;15.53;;;9.93;;
1360;SDS011;674;45.552;-122.600;2023-04-16T05:02:49;12.88;;;8.15;;
1360;SDS011;674;45.552;-122.600;2023-04-16T05:05:18;15.90;;;9.40;;
1360;SDS011;674;45.552;-122.600;2023-04-16T05:07:47;13.60;;;8.27;;
1360;SDS011;674;45.552;-122.600;2023-04-16T05:10:15;13.43;;;10.27;;
1360;SDS011;674;45.552;-122.600;2023-04-16T05:12:44;20.10;;;13.53;;
1360;SDS011;674;45.552;-122.600;2023-04-16T05:15:15;24.40;;;17.20;;
1360;SDS011;674;45.552;-122.600;2023-04-16T05:17:43;14.07;;;9.83;;
1360;SDS011;674;45.552;-122.600;2023-04-16T05:20:12;14.55;;;11.15;;
1360;SDS011;674;45.552;-122.600;2023-04-16T05:22:40;15.37;;;11.50;;
1360;SDS011;674;45.552;-122.600;2023-04-16T05:25:09;13.73;;;10.00;;
1360;SDS011;674;45.552;-122.600;2023-04-16T05:27:38;10.07;;;7.00;;
1360;SDS011;674;45.552;-122.600;2023-04-16T05:30:07;10.50;;;8.67;;
1360;SDS011;674;45.552;-122.600;2023-04-16T05:32:37;11.90;;;8.70;;
1360;SDS011;674;45.552;-122.600;2023-04-16T05:35:07;8.83;;;7.80;;
1360;SDS011;674;45.552;-122.600;2023-04-16T05:37:37;10.67;;;7.20;;
1360;SDS011;674;45.552;-122.600;2023-04-16T05:40:05;9.33;;;7.27;;
1360;SDS011;674;45.552;-122.600;2023-04-16T05:42:34;8.90;;;6.57;;
1360;SDS011;674;45.552;-122.600;2023-04-16T05:45:03;10.10;;;7.63;;
1360;SDS011;674;45.552;-122.600;2023-04-16T05:47:33;14.73;;;8.57;;
1360;SDS011;674;45.552;-122.600;2023-04-16T05:50:02;9.20;;;7.43;;
1360;SDS011;674;45.552;-122.600;2023-04-16T05:52:31;11.30;;;7.83;;
1360;SDS011;674;45.552;-122.600;2023-04-16T05:55:00;10.00;;;8.10;;
1360;SDS011;674;45.552;-122.600;2023-04-16T05:57:28;9.37;;;7.63;;
1360;SDS011;674;45.552;-122.600;2023-04-16T05:59:57;8.00;;;6.57;;
1360;SDS011;674;45.552;-122.600;2023-04-16T06:02:25;9.40;;;7.00;;
1360;SDS011;674;45.552;-122.600;2023-04-16T06:04:54;12.33;;;7.60;;
1360;SDS011;674;45.552;-122.600;2023-04-16T06:07:23;10.30;;;7.15;;
1360;SDS011;674;45.552;-122.600;2023-04-16T06:09:51;8.40;;;7.20;;
1360;SDS011;674;45.552;-122.600;2023-04-16T06:12:20;8.45;;;6.82;;
1360;SDS011;674;45.552;-122.600;2023-04-16T06:14:48;10.52;;;8.27;;
1360;SDS011;674;45.552;-122.600;2023-04-16T06:17:17;10.23;;;7.37;;
1360;SDS011;674;45.552;-122.600;2023-04-16T06:19:45;10.27;;;8.57;;
1360;SDS011;674;45.552;-122.600;2023-04-16T06:22:14;9.90;;;8.38;;
1360;SDS011;674;45.552;-122.600;2023-04-16T06:24:42;9.13;;;7.28;;
1360;SDS011;674;45.552;-122.600;2023-04-16T06:27:11;11.73;;;8.00;;
1360;SDS011;674;45.552;-122.600;2023-04-16T06:29:40;9.50;;;7.70;;
1360;SDS011;674;45.552;-122.600;2023-04-16T06:32:08;8.77;;;7.88;;
1360;SDS011;674;45.552;-122.600;2023-04-16T06:34:37;11.70;;;8.30;;
1360;SDS011;674;45.552;-122.600;2023-04-16T06:37:06;12.90;;;10.75;;
1360;SDS011;674;45.552;-122.600;2023-04-16T06:39:36;12.47;;;10.00;;
1360;SDS011;674;45.552;-122.600;2023-04-16T06:42:04;10.77;;;9.67;;
1360;SDS011;674;45.552;-122.600;2023-04-16T06:44:34;10.33;;;7.97;;
1360;SDS011;674;45.552;-122.600;2023-04-16T06:47:02;9.20;;;8.13;;
1360;SDS011;674;45.552;-122.600;2023-04-16T06:49:31;11.23;;;8.03;;
1360;SDS011;674;45.552;-122.600;2023-04-16T06:51:59;9.23;;;8.30;;
1360;SDS011;674;45.552;-122.600;2023-04-16T06:54:31;11.07;;;9.97;;
1360;SDS011;674;45.552;-122.600;2023-04-16T06:57:00;12.47;;;11.17;;
1360;SDS011;674;45.552;-122.600;2023-04-16T06:59:29;13.52;;;12.13;;
1360;SDS011;674;45.552;-122.600;2023-04-16T07:01:58;16.63;;;14.93;;
1360;SDS011;674;45.552;-122.600;2023-04-16T07:04:27;13.60;;;11.90;;
1360;SDS011;674;45.552;-122.600;2023-04-16T07:06:57;11.35;;;10.02;;
1360;SDS011;674;45.552;-122.600;2023-04-16T07:09:25;14.45;;;11.70;;
1360;SDS011;674;45.552;-122.600;2023-04-16T07:11:54;12.53;;;11.17;;
1360;SDS011;674;45.552;-122.600;2023-04-16T07:14:23;12.00;;;10.27;;
1360;SDS011;674;45.552;-122.600;2023-04-16T07:16:51;12.00;;;9.97;;
1360;SDS011;674;45.552;-122.600;2023-04-16T07:19:20;11.30;;;9.70;;
1360;SDS011;674;45.552;-122.600;2023-04-16T07:21:48;13.47;;;10.83;;
1360;SDS011;674;45.552;-122.600;2023-04-16T07:24:16;12.43;;;9.93;;
1360;SDS011;674;45.552;-122.600;2023-04-16T07:26:45;14.30;;;10.33;;
1360;SDS011;674;45.552;-122.600;2023-04-16T07:29:13;11.00;;;9.90;;
1360;SDS011;674;45.552;-122.600;2023-04-16T07:31:42;14.80;;;13.37;;
1360;SDS011;674;45.552;-122.600;2023-04-16T07:34:11;13.80;;;12.40;;
1360;SDS011;674;45.552;-122.600;2023-04-16T07:36:40;12.70;;;11.40;;
1360;SDS011;674;45.552;-122.600;2023-04-16T07:39:09;12.80;;;11.50;;
1360;SDS011;674;45.552;-122.600;2023-04-16T07:41:38;12.93;;;9.97;;
1360;SDS011;674;45.552;-122.600;2023-04-16T07:44:07;11.40;;;10.20;;
1360;SDS011;674;45.552;-122.600;2023-04-16T07:46:36;12.43;;;9.23;;
1360;SDS011;674;45.552;-122.600;2023-04-16T07:49:13;13.27;;;11.23;;
1360;SDS011;674;45.552;-122.600;2023-04-16T07:51:42;12.55;;;10.25;;
1360;SDS011;674;45.552;-122.600;2023-04-16T07:54:10;14.03;;;11.27;;
1360;SDS011;674;45.552;-122.600;2023-04-16T07:56:39;13.53;;;11.10;;
1360;SDS011;674;45.552;-122.600;2023-04-16T07:59:07;11.77;;;10.27;;
1360;SDS011;674;45.552;-122.600;2023-04-16T08:01:48;12.67;;;9.40;;
1360;SDS011;674;45.552;-122.600;2023-04-16T08:04:19;13.60;;;11.10;;
1360;SDS011;674;45.552;-122.600;2023-04-16T08:06:52;16.70;;;14.90;;
1360;SDS011;674;45.552;-122.600;2023-04-16T08:09:21;14.20;;;11.90;;
1360;SDS011;674;45.552;-122.600;2023-04-16T08:11:53;18.80;;;13.17;;
1360;SDS011;674;45.552;-122.600;2023-04-16T08:14:21;14.20;;;10.27;;
1360;SDS011;674;45.552;-122.600;2023-04-16T08:16:50;16.90;;;14.30;;
1360;SDS011;674;45.552;-122.600;2023-04-16T08:19:19;13.10;;;11.70;;
1360;SDS011;674;45.552;-122.600;2023-04-16T08:21:47;15.13;;;10.50;;
1360;SDS011;674;45.552;-122.600;2023-04-16T08:24:16;12.60;;;10.90;;
1360;SDS011;674;45.552;-122.600;2023-04-16T08:26:45;13.73;;;11.27;;
1360;SDS011;674;45.552;-122.600;2023-04-16T08:29:13;13.23;;;10.20;;
1360;SDS011;674;45.552;-122.600;2023-04-16T08:31:42;14.43;;;11.20;;
1360;SDS011;674;45.552;-122.600;2023-04-16T08:34:10;11.60;;;9.93;;
1360;SDS011;674;45.552;-122.600;2023-04-16T08:36:40;11.65;;;9.07;;
1360;SDS011;674;45.552;-122.600;2023-04-16T08:39:08;10.50;;;8.70;;
1360;SDS011;674;45.552;-122.600;2023-04-16T08:41:40;12.48;;;8.63;;
1360;SDS011;674;45.552;-122.600;2023-04-16T08:44:13;9.63;;;7.27;;
1360;SDS011;674;45.552;-122.600;2023-04-16T08:46:54;11.10;;;6.90;;
1360;SDS011;674;45.552;-122.600;2023-04-16T08:49:25;8.67;;;6.47;;
1360;SDS011;674;45.552;-122.600;2023-04-16T08:51:55;12.40;;;5.80;;
1360;SDS011;674;45.552;-122.600;2023-04-16T08:54:30;5.30;;;4.30;;
1360;SDS011;674;45.552;-122.600;2023-04-16T08:57:05;9.40;;;4.20;;
1360;SDS011;674;45.552;-122.600;2023-04-16T08:59:37;10.83;;;4.07;;
1360;SDS011;674;45.552;-122.600;2023-04-16T09:02:06;10.38;;;3.45;;
1360;SDS011;674;45.552;-122.600;2023-04-16T09:04:40;6.00;;;3.50;;
1360;SDS011;674;45.552;-122.600;2023-04-16T09:07:09;10.33;;;3.80;;
1360;SDS011;674;45.552;-122.600;2023-04-16T09:09:38;9.27;;;3.50;;
1360;SDS011;674;45.552;-122.600;2023-04-16T09:12:07;7.00;;;3.23;;
1360;SDS011;674;45.552;-122.600;2023-04-16T09:14:36;6.07;;;3.00;;
1360;SDS011;674;45.552;-122.600;2023-04-16T09:17:08;6.15;;;3.00;;
1360;SDS011;674;45.552;-122.600;2023-04-16T09:19:37;5.70;;;3.30;;
1360;SDS011;674;45.552;-122.600;2023-04-16T09:22:05;6.80;;;2.93;;
1360;SDS011;674;45.552;-122.600;2023-04-16T09:24:34;6.43;;;2.90;;
1360;SDS011;674;45.552;-122.600;2023-04-16T09:27:05;9.40;;;3.27;;
1360;SDS011;674;45.552;-122.600;2023-04-16T09:29:39;6.00;;;2.60;;
1360;SDS011;674;45.552;-122.600;2023-04-16T09:32:09;11.53;;;2.63;;
1360;SDS011;674;45.552;-122.600;2023-04-16T09:34:57;4.63;;;2.23;;
1360;SDS011;674;45.552;-122.600;2023-04-16T09:37:29;6.50;;;2.43;;
1360;SDS011;674;45.552;-122.600;2023-04-16T09:40:02;6.05;;;2.53;;
1360;SDS011;674;45.552;-122.600;2023-04-16T09:42:32;7.30;;;2.38;;
1360;SDS011;674;45.552;-122.600;2023-04-16T09:45:03;6.07;;;2.28;;
1360;SDS011;674;45.552;-122.600;2023-04-16T09:47:39;9.63;;;3.13;;
1360;SDS011;674;45.552;-122.600;2023-04-16T09:50:15;3.78;;;2.53;;
1360;SDS011;674;45.552;-122.600;2023-04-16T09:52:47;6.63;;;2.63;;
1360;SDS011;674;45.552;-122.600;2023-04-16T09:55:26;5.43;;;2.63;;
1360;SDS011;674;45.552;-122.600;2023-04-16T09:57:57;5.67;;;2.73;;
1360;SDS011;674;45.552;-122.600;2023-04-16T10:00:28;9.40;;;3.00;;
1360;SDS011;674;45.552;-122.600;2023-04-16T10:03:04;5.82;;;2.72;;
1360;SDS011;674;45.552;-122.600;2023-04-16T10:05:33;6.38;;;2.78;;
1360;SDS011;674;45.552;-122.600;2023-04-16T10:08:03;5.80;;;3.20;;
1360;SDS011;674;45.552;-122.600;2023-04-16T10:10:39;6.13;;;2.50;;
1360;SDS011;674;45.552;-122.600;2023-04-16T10:13:08;6.57;;;2.50;;
1360;SDS011;674;45.552;-122.600;2023-04-16T10:15:38;9.27;;;2.70;;
1360;SDS011;674;45.552;-122.600;2023-04-16T10:18:08;6.50;;;2.57;;
1360;SDS011;674;45.552;-122.600;2023-04-16T10:20:37;6.90;;;2.47;;
1360;SDS011;674;45.552;-122.600;2023-04-16T10:23:05;7.63;;;3.05;;
1360;SDS011;674;45.552;-122.600;2023-04-16T10:25:36;4.60;;;2.23;;
1360;SDS011;674;45.552;-122.600;2023-04-16T10:28:05;6.77;;;2.70;;
1360;SDS011;674;45.552;-122.600;2023-04-16T10:30:35;4.30;;;2.33;;
1360;SDS011;674;45.552;-122.600;2023-04-16T10:33:05;6.60;;;2.97;;
1360;SDS011;674;45.552;-122.600;2023-04-16T10:35:38;6.27;;;2.87;;
1360;SDS011;674;45.552;-122.600;2023-04-16T10:38:26;4.87;;;2.57;;
1360;SDS011;674;45.552;-122.600;2023-04-16T10:41:04;7.90;;;3.03;;
1360;SDS011;674;45.552;-122.600;2023-04-16T10:43:42;6.03;;;2.70;;
1360;SDS011;674;45.552;-122.600;2023-04-16T10:46:25;6.70;;;3.83;;
1360;SDS011;674;45.552;-122.600;2023-04-16T10:49:02;6.70;;;3.30;;
1360;SDS011;674;45.552;-122.600;2023-04-16T10:51:41;7.80;;;3.40;;
1360;SDS011;674;45.552;-122.600;2023-04-16T10:56:48;6.40;;;2.40;;
1360;SDS011;674;45.552;-122.600;2023-04-16T10:59:18;7.30;;;2.70;;
1360;SDS011;674;45.552;-122.600;2023-04-16T11:01:52;7.60;;;3.00;;
1360;SDS011;674;45.552;-122.600;2023-04-16T11:12:14;8.20;;;3.25;;
1360;SDS011;674;45.552;-122.600;2023-04-16T11:14:52;5.10;;;2.80;;
1360;SDS011;674;45.552;-122.600;2023-04-16T11:17:29;8.03;;;3.57;;
1360;SDS011;674;45.552;-122.600;2023-04-16T11:20:15;12.23;;;3.87;;
1360;SDS011;674;45.552;-122.600;2023-04-16T11:22:49;7.20;;;3.43;;
1360;SDS011;674;45.552;-122.600;2023-04-16T11:25:23;6.13;;;2.83;;
1360;SDS011;674;45.552;-122.600;2023-04-16T11:27:53;8.63;;;4.00;;
1360;SDS011;674;45.552;-122.600;2023-04-16T11:30:32;6.93;;;4.10;;
1360;SDS011;674;45.552;-122.600;2023-04-16T11:33:02;8.17;;;3.60;;
1360;SDS011;674;45.552;-122.600;2023-04-16T11:35:36;8.27;;;4.20;;
1360;SDS011;674;45.552;-122.600;2023-04-16T11:38:05;9.03;;;3.30;;
1360;SDS011;674;45.552;-122.600;2023-04-16T11:40:34;11.63;;;3.67;;
1360;SDS011;674;45.552;-122.600;2023-04-16T11:43:03;8.63;;;4.23;;
1360;SDS011;674;45.552;-122.600;2023-04-16T11:45:58;7.73;;;3.80;;
1360;SDS011;674;45.552;-122.600;2023-04-16T11:51:38;5.25;;;3.13;;
1360;SDS011;674;45.552;-122.600;2023-04-16T11:54:19;10.45;;;3.95;;
1360;SDS011;674;45.552;-122.600;2023-04-16T11:56:49;6.87;;;4.53;;
1360;SDS011;674;45.552;-122.600;2023-04-16T11:59:20;8.20;;;4.37;;
1360;SDS011;674;45.552;-122.600;2023-04-16T12:01:53;6.53;;;3.30;;
1360;SDS011;674;45.552;-122.600;2023-04-16T12:04:23;6.95;;;3.85;;
1360;SDS011;674;45.552;-122.600;2023-04-16T12:07:06;7.10;;;3.47;;
1360;SDS011;674;45.552;-122.600;2023-04-16T12:09:39;9.00;;;3.50;;
1360;SDS011;674;45.552;-122.600;2023-04-16T12:12:25;7.83;;;3.47;;
1360;SDS011;674;45.552;-122.600;2023-04-16T12:14:58;10.40;;;3.73;;
1360;SDS011;674;45.552;-122.600;2023-04-16T12:17:30;6.50;;;3.70;;
1360;SDS011;674;45.552;-122.600;2023-04-16T12:20:07;7.13;;;3.53;;
1360;SDS011;674;45.552;-122.600;2023-04-16T12:22:38;10.77;;;3.40;;
1360;SDS011;674;45.552;-122.600;2023-04-16T12:25:12;10.10;;;3.97;;
1360;SDS011;674;45.552;-122.600;2023-04-16T12:30:16;7.50;;;3.50;;
1360;SDS011;674;45.552;-122.600;2023-04-16T12:32:48;8.00;;;3.20;;
1360;SDS011;674;45.552;-122.600;2023-04-16T12:35:33;7.30;;;3.10;;
1360;SDS011;674;45.552;-122.600;2023-04-16T12:38:01;6.73;;;3.30;;
1360;SDS011;674;45.552;-122.600;2023-04-16T12:40:30;8.32;;;4.15;;
1360;SDS011;674;45.552;-122.600;2023-04-16T12:42:58;7.13;;;3.33;;
1360;SDS011;674;45.552;-122.600;2023-04-16T12:45:27;10.23;;;4.10;;
1360;SDS011;674;45.552;-122.600;2023-04-16T12:47:55;7.80;;;3.73;;
1360;SDS011;674;45.552;-122.600;2023-04-16T12:50:24;14.60;;;4.07;;
1360;SDS011;674;45.552;-122.600;2023-04-16T12:52:55;10.63;;;3.27;;
1360;SDS011;674;45.552;-122.600;2023-04-16T12:55:24;7.50;;;3.60;;
1360;SDS011;674;45.552;-122.600;2023-04-16T12:57:52;8.10;;;3.93;;
1360;SDS011;674;45.552;-122.600;2023-04-16T13:00:21;9.67;;;3.90;;
1360;SDS011;674;45.552;-122.600;2023-04-16T13:02:49;7.13;;;3.00;;
1360;SDS011;674;45.552;-122.600;2023-04-16T13:05:18;7.37;;;3.20;;
1360;SDS011;674;45.552;-122.600;2023-04-16T13:07:47;5.80;;;2.87;;
1360;SDS011;674;45.552;-122.600;2023-04-16T13:10:16;7.27;;;3.50;;
1360;SDS011;674;45.552;-122.600;2023-04-16T13:12:45;5.10;;;2.83;;
1360;SDS011;674;45.552;-122.600;2023-04-16T13:15:13;12.20;;;3.43;;
1360;SDS011;674;45.552;-122.600;2023-04-16T13:17:42;7.90;;;3.63;;
1360;SDS011;674;45.552;-122.600;2023-04-16T13:20:10;7.27;;;3.63;;
1360;SDS011;674;45.552;-122.600;2023-04-16T13:22:39;8.50;;;3.90;;
1360;SDS011;674;45.552;-122.600;2023-04-16T13:25:08;5.67;;;3.20;;
1360;SDS011;674;45.552;-122.600;2023-04-16T13:27:37;9.00;;;4.10;;
1360;SDS011;674;45.552;-122.600;2023-04-16T13:30:06;6.70;;;3.83;;
1360;SDS011;674;45.552;-122.600;2023-04-16T13:32:35;8.83;;;4.37;;
1360;SDS011;674;45.552;-122.600;2023-04-16T13:35:03;5.63;;;3.60;;
1360;SDS011;674;45.552;-122.600;2023-04-16T13:37:33;6.10;;;3.20;;
1360;SDS011;674;45.552;-122.600;2023-04-16T13:40:01;6.70;;;3.47;;
1360;SDS011;674;45.552;-122.600;2023-04-16T13:42:30;9.85;;;3.78;;
1360;SDS011;674;45.552;-122.600;2023-04-16T13:44:58;5.20;;;3.03;;
1360;SDS011;674;45.552;-122.600;2023-04-16T13:47:27;8.43;;;4.27;;
1360;SDS011;674;45.552;-122.600;2023-04-16T13:49:56;5.80;;;3.17;;
1360;SDS011;674;45.552;-122.600;2023-04-16T13:52:24;9.03;;;3.40;;
1360;SDS011;674;45.552;-122.600;2023-04-16T13:54:53;6.47;;;3.53;;
1360;SDS011;674;45.552;-122.600;2023-04-16T13:57:25;7.00;;;3.70;;
1360;SDS011;674;45.552;-122.600;2023-04-16T13:59:54;7.57;;;3.43;;
1360;SDS011;674;45.552;-122.600;2023-04-16T14:02:23;8.80;;;3.47;;
1360;SDS011;674;45.552;-122.600;2023-04-16T14:04:52;6.30;;;3.17;;
1360;SDS011;674;45.552;-122.600;2023-04-16T14:07:21;4.68;;;3.13;;
1360;SDS011;674;45.552;-122.600;2023-04-16T14:09:53;7.17;;;4.60;;
1360;SDS011;674;45.552;-122.600;2023-04-16T14:12:21;7.70;;;3.13;;
1360;SDS011;674;45.552;-122.600;2023-04-16T14:14:50;7.93;;;3.37;;
1360;SDS011;674;45.552;-122.600;2023-04-16T14:17:18;7.13;;;3.13;;
1360;SDS011;674;45.552;-122.600;2023-04-16T14:19:47;7.47;;;2.85;;
1360;SDS011;674;45.552;-122.600;2023-04-16T14:22:16;8.80;;;4.17;;
1360;SDS011;674;45.552;-122.600;2023-04-16T14:24:45;9.17;;;4.10;;
1360;SDS011;674;45.552;-122.600;2023-04-16T14:27:13;7.30;;;3.70;;
1360;SDS011;674;45.552;-122.600;2023-04-16T14:29:43;8.13;;;3.80;;
1360;SDS011;674;45.552;-122.600;2023-04-16T14:32:12;7.37;;;3.73;;
1360;SDS011;674;45.552;-122.600;2023-04-16T14:34:41;8.50;;;3.87;;
1360;SDS011;674;45.552;-122.600;2023-04-16T14:37:10;6.03;;;3.33;;
1360;SDS011;674;45.552;-122.600;2023-04-16T14:39:39;10.23;;;4.00;;
1360;SDS011;674;45.552;-122.600;2023-04-16T14:42:08;9.93;;;3.87;;
1360;SDS011;674;45.552;-122.600;2023-04-16T14:44:37;9.97;;;3.77;;
1360;SDS011;674;45.552;-122.600;2023-04-16T14:47:06;11.10;;;3.90;;
1360;SDS011;674;45.552;-122.600;2023-04-16T14:49:34;6.90;;;3.60;;
1360;SDS011;674;45.552;-122.600;2023-04-16T14:52:03;6.23;;;3.30;;
1360;SDS011;674;45.552;-122.600;2023-04-16T14:54:32;9.00;;;3.80;;
1360;SDS011;674;45.552;-122.600;2023-04-16T14:57:00;6.97;;;4.22;;
1360;SDS011;674;45.552;-122.600;2023-04-16T14:59:29;6.57;;;3.73;;
1360;SDS011;674;45.552;-122.600;2023-04-16T15:01:58;8.50;;;4.63;;
1360;SDS011;674;45.552;-122.600;2023-04-16T15:04:27;9.03;;;4.20;;
1360;SDS011;674;45.552;-122.600;2023-04-16T15:06:57;7.23;;;4.20;;
1360;SDS011;674;45.552;-122.600;2023-04-16T15:09:26;9.27;;;4.70;;
1360;SDS011;674;45.552;-122.600;2023-04-16T15:11:55;9.00;;;4.40;;
1360;SDS011;674;45.552;-122.600;2023-04-16T15:14:24;10.20;;;5.80;;
1360;SDS011;674;45.552;-122.600;2023-04-16T15:16:52;16.23;;;5.25;;